Market Weighton, United Kingdom
Current Conditions -  °F | °C
As of 4:50 AM on Monday 22 Dec 2014 (Local Time) from EGXV Reporting Station
Overcast Overcast  
Wind Chill: 57°   Ceiling: 2600
Heat Index: 57°   Visibility: 6mi
Dew Point: 46°   Wind: 20mph
Humidity: 67%   Direction: 230°SW
Pressure: 29.71"   Gusts: NA
Location:  53.86°N, 0.67°W
Report Text: EGXV 220450Z AUTO 23017KT 9999 OVC026/// 14/08 Q1006
Loading
Personal Weather Stations






























Interactive Weather Map New forecast layout! Learn more

10-Day Weather Forecast

Advertisements
Track Severe Weather on mobile